地図

経路データ

SID SEASON NUMBER BASIN SUBBASIN NAME ISO_TIME NATURE LAT LON WMO_WIND WMO_PRES WMO_AGENCY TRACK_TYPE DIST2LAND LANDFALL IFLAG USA_AGENCY USA_ATCF_ID USA_LAT USA_LON USA_RECORD USA_STATUS USA_WIND USA_PRES USA_SSHS USA_R34_NE USA_R34_SE USA_R34_SW USA_R34_NW USA_R50_NE USA_R50_SE USA_R50_SW USA_R50_NW USA_R64_NE USA_R64_SE USA_R64_SW USA_R64_NW USA_POCI USA_ROCI USA_RMW USA_EYE TOKYO_LAT TOKYO_LON TOKYO_GRADE TOKYO_WIND TOKYO_PRES TOKYO_R50_DIR TOKYO_R50_LONG TOKYO_R50_SHORT TOKYO_R30_DIR TOKYO_R30_LONG TOKYO_R30_SHORT TOKYO_LAND CMA_LAT CMA_LON CMA_CAT CMA_WIND CMA_PRES HKO_LAT HKO_LON HKO_CAT HKO_WIND HKO_PRES NEWDELHI_LAT NEWDELHI_LON NEWDELHI_GRADE NEWDELHI_WIND NEWDELHI_PRES NEWDELHI_CI NEWDELHI_DP NEWDELHI_POCI REUNION_LAT REUNION_LON REUNION_TYPE REUNION_WIND REUNION_PRES REUNION_TNUM REUNION_CI REUNION_RMW REUNION_R34_NE REUNION_R34_SE REUNION_R34_SW REUNION_R34_NW REUNION_R50_NE REUNION_R50_SE REUNION_R50_SW REUNION_R50_NW REUNION_R64_NE REUNION_R64_SE REUNION_R64_SW REUNION_R64_NW BOM_LAT BOM_LON BOM_TYPE BOM_WIND BOM_PRES BOM_TNUM BOM_CI BOM_RMW BOM_R34_NE BOM_R34_SE BOM_R34_SW BOM_R34_NW BOM_R50_NE BOM_R50_SE BOM_R50_SW BOM_R50_NW BOM_R64_NE BOM_R64_SE BOM_R64_SW BOM_R64_NW BOM_ROCI BOM_POCI BOM_EYE BOM_POS_METHOD BOM_PRES_METHOD NADI_LAT NADI_LON NADI_CAT NADI_WIND NADI_PRES WELLINGTON_LAT WELLINGTON_LON WELLINGTON_WIND WELLINGTON_PRES DS824_LAT DS824_LON DS824_STAGE DS824_WIND DS824_PRES TD9636_LAT TD9636_LON TD9636_STAGE TD9636_WIND TD9636_PRES TD9635_LAT TD9635_LON TD9635_WIND TD9635_PRES TD9635_ROCI NEUMANN_LAT NEUMANN_LON NEUMANN_CLASS NEUMANN_WIND NEUMANN_PRES MLC_LAT MLC_LON MLC_CLASS MLC_WIND MLC_PRES USA_GUST BOM_GUST BOM_GUST_PER REUNION_GUST REUNION_GUST_PER USA_SEAHGT USA_SEARAD_NE USA_SEARAD_SE USA_SEARAD_SW USA_SEARAD_NW STORM_SPEED STORM_DIR
1928356S07096 1929 69 SI WA NOT_NAMED 1928-12-20 18:00:00 NR -6.80000 96.3000 main 640 640 __________O___ -1 -6.80000 96.3000 7 11 192
1928356S07096 1929 69 SI WA NOT_NAMED 1928-12-20 21:00:00 NR -7.34839 96.1833 main 695 695 __________P___ -1 -7.34839 96.1833 7 11 190
1928356S07096 1929 69 SI WA NOT_NAMED 1928-12-21 00:00:00 NR -7.87743 96.1031 main 760 760 __________P___ -1 -7.87743 96.1031 7 10 185
1928356S07096 1929 69 SI WA NOT_NAMED 1928-12-21 03:00:00 NR -8.36775 96.0963 main 810 810 __________P___ -1 -8.36775 96.0963 7 9 174
1928356S07096 1929 69 SI WA NOT_NAMED 1928-12-21 06:00:00 NR -8.80000 96.2000 main 847 847 __________O___ -1 -8.80000 96.2000 7 9 157
1928356S07096 1929 69 SI WA NOT_NAMED 1928-12-21 09:00:00 NR -9.16167 96.4379 main 874 865 __________P___ -1 -9.16167 96.4379 7 9 139
1928356S07096 1929 69 SI WA NOT_NAMED 1928-12-21 12:00:00 NR -9.46767 96.7798 main 865 851 __________P___ -1 -9.46767 96.7798 7 9 128
1928356S07096 1929 69 SI WA NOT_NAMED 1928-12-21 15:00:00 NR -9.73980 97.1818 main 851 847 __________P___ -1 -9.73980 97.1818 7 10 123
1928356S07096 1929 69 SI WA NOT_NAMED 1928-12-21 18:00:00 NR -10.0000 97.6000 main 849 842 __________O___ -1 -10.0000 97.6000 7 10 125
1928356S07096 1929 69 SI WA NOT_NAMED 1928-12-21 21:00:00 NR -10.2944 97.9881 main 845 838 __________P___ -1 -10.2944 97.9881 7 10 127
1928356S07096 1929 69 SI WA NOT_NAMED 1928-12-22 00:00:00 NR -10.5801 98.3799 main 844 838 __________P___ -1 -10.5801 98.3799 7 9 126
1928356S07096 1929 69 SI WA NOT_NAMED 1928-12-22 03:00:00 NR -10.8507 98.7568 main 840 825 __________P___ -1 -10.8507 98.7568 7 9 126
1928356S07096 1929 69 SI WA NOT_NAMED 1928-12-22 06:00:00 NR -11.1000 99.1000 main 825 814 __________O___ -1 -11.1000 99.1000 7 8 128
1928356S07096 1929 69 SI WA NOT_NAMED 1928-12-22 09:00:00 NR -11.3211 99.3620 main 812 809 __________P___ -1 -11.3211 99.3620 7 6 131
1928356S07096 1929 69 SI WA NOT_NAMED 1928-12-22 12:00:00 NR -11.5219 99.5931 main 809 808 __________P___ -1 -11.5219 99.5931 7 6 131
1928356S07096 1929 69 SI WA NOT_NAMED 1928-12-22 15:00:00 NR -11.7117 99.8276 main 808 799 __________P___ -1 -11.7117 99.8276 7 6 127
1928356S07096 1929 69 SI WA NOT_NAMED 1928-12-22 18:00:00 NR -11.9000 100.100 main 799 786 __________O___ -1 -11.9000 100.100 7 8 122
1928356S07096 1929 69 SI WA NOT_NAMED 1928-12-22 21:00:00 NR -12.1125 100.485 main 786 775 __________P___ -1 -12.1125 100.485 7 9 118
1928356S07096 1929 69 SI WA NOT_NAMED 1928-12-23 00:00:00 NR -12.3230 100.907 main 775 765 __________P___ -1 -12.3230 100.907 7 9 116
1928356S07096 1929 69 SI WA NOT_NAMED 1928-12-23 03:00:00 NR -12.5219 101.326 main 768 760 __________P___ -1 -12.5219 101.326 7 9 116
1928356S07096 1929 69 SI WA NOT_NAMED 1928-12-23 06:00:00 NR -12.7000 101.700 main 764 758 __________O___ -1 -12.7000 101.700 7 7 117
1928356S07096 1929 69 SI WA NOT_NAMED 1928-12-23 09:00:00 NR -12.8422 101.976 main 758 758 __________P___ -1 -12.8422 101.976 7 6 118
1928356S07096 1929 69 SI WA NOT_NAMED 1928-12-23 12:00:00 NR -12.9646 102.203 main 768 763 __________P___ -1 -12.9646 102.203 7 5 120
1928356S07096 1929 69 SI WA NOT_NAMED 1928-12-23 15:00:00 NR -13.0797 102.404 main 769 765 __________P___ -1 -13.0797 102.404 7 5 121
1928356S07096 1929 69 SI WA NOT_NAMED 1928-12-23 18:00:00 NR -13.2000 102.600 main 771 765 __________O___ -1 -13.2000 102.600 7 5 123
1928356S07096 1929 69 SI WA NOT_NAMED 1928-12-23 21:00:00 NR -13.3349 102.809 main 769 768 __________P___ -1 -13.3349 102.809 7 5 124
1928356S07096 1929 69 SI WA NOT_NAMED 1928-12-24 00:00:00 NR -13.4828 103.032 main 777 772 __________P___ -1 -13.4828 103.032 7 5 125
1928356S07096 1929 69 SI WA NOT_NAMED 1928-12-24 03:00:00 NR -13.6393 103.264 main 772 772 __________P___ -1 -13.6393 103.264 7 6 125
1928356S07096 1929 69 SI WA NOT_NAMED 1928-12-24 06:00:00 NR -13.8000 103.500 main 783 __________O___ -1 -13.8000 103.500 7 6 125

IBTrACS Databaseについて

本データベースは、米国NOAAが公開する1842年以降の世界の熱帯低気圧のベストトラックデータアーカイブInternational Best Track Archive for Climate Stewardship (IBTrACS)を、ウェブで閲覧しやすい形式に変換したものです。

最終更新日:2021-10-21